sensor_id;sensor_type;location;lat;lon;timestamp;temperature;humidity
52555;DHT22;38455;52.710;6.502;2023-04-15T00:01:22;8.20;99.90
52555;DHT22;38455;52.710;6.502;2023-04-15T00:03:51;8.10;99.90
52555;DHT22;38455;52.710;6.502;2023-04-15T00:06:20;8.10;99.90
52555;DHT22;38455;52.710;6.502;2023-04-15T00:08:46;8.10;99.90
52555;DHT22;38455;52.710;6.502;2023-04-15T00:11:12;8.10;99.90
52555;DHT22;38455;52.710;6.502;2023-04-15T00:13:38;8.00;99.90
52555;DHT22;38455;52.710;6.502;2023-04-15T00:16:05;8.00;99.90
52555;DHT22;38455;52.710;6.502;2023-04-15T00:18:31;8.00;99.90
52555;DHT22;38455;52.710;6.502;2023-04-15T00:20:57;8.00;99.90
52555;DHT22;38455;52.710;6.502;2023-04-15T00:23:24;7.90;99.90
52555;DHT22;38455;52.710;6.502;2023-04-15T00:25:50;7.90;99.90
52555;DHT22;38455;52.710;6.502;2023-04-15T00:28:16;7.90;99.90
52555;DHT22;38455;52.710;6.502;2023-04-15T00:30:42;7.80;99.90
52555;DHT22;38455;52.710;6.502;2023-04-15T00:33:08;7.80;99.90
52555;DHT22;38455;52.710;6.502;2023-04-15T00:35:34;7.80;99.90
52555;DHT22;38455;52.710;6.502;2023-04-15T00:38:01;7.80;99.90
52555;DHT22;38455;52.710;6.502;2023-04-15T00:40:26;7.80;99.90
52555;DHT22;38455;52.710;6.502;2023-04-15T00:42:52;7.70;99.90
52555;DHT22;38455;52.710;6.502;2023-04-15T00:45:18;7.60;99.90
52555;DHT22;38455;52.710;6.502;2023-04-15T00:47:44;7.50;99.90
52555;DHT22;38455;52.710;6.502;2023-04-15T00:50:11;7.50;99.90
52555;DHT22;38455;52.710;6.502;2023-04-15T00:52:37;7.50;99.90
52555;DHT22;38455;52.710;6.502;2023-04-15T00:55:04;7.40;99.90
52555;DHT22;38455;52.710;6.502;2023-04-15T00:57:30;7.40;99.90
52555;DHT22;38455;52.710;6.502;2023-04-15T00:59:57;7.40;99.90
52555;DHT22;38455;52.710;6.502;2023-04-15T01:02:23;7.30;99.90
52555;DHT22;38455;52.710;6.502;2023-04-15T01:04:49;7.20;99.90
52555;DHT22;38455;52.710;6.502;2023-04-15T01:07:15;7.10;99.90
52555;DHT22;38455;52.710;6.502;2023-04-15T01:09:42;7.10;99.90
52555;DHT22;38455;52.710;6.502;2023-04-15T01:12:11;7.10;99.90
52555;DHT22;38455;52.710;6.502;2023-04-15T01:14:38;7.00;99.90
52555;DHT22;38455;52.710;6.502;2023-04-15T01:17:04;7.00;99.90
52555;DHT22;38455;52.710;6.502;2023-04-15T01:19:30;6.90;99.90
52555;DHT22;38455;52.710;6.502;2023-04-15T01:21:56;6.80;99.90
52555;DHT22;38455;52.710;6.502;2023-04-15T01:24:22;6.80;99.90
52555;DHT22;38455;52.710;6.502;2023-04-15T01:26:49;6.80;99.90
52555;DHT22;38455;52.710;6.502;2023-04-15T01:29:14;6.80;99.90
52555;DHT22;38455;52.710;6.502;2023-04-15T01:31:47;6.80;99.90
52555;DHT22;38455;52.710;6.502;2023-04-15T01:34:14;6.80;99.90
52555;DHT22;38455;52.710;6.502;2023-04-15T01:36:39;6.80;99.90
52555;DHT22;38455;52.710;6.502;2023-04-15T01:39:05;6.70;99.90
52555;DHT22;38455;52.710;6.502;2023-04-15T01:41:31;6.60;99.90
52555;DHT22;38455;52.710;6.502;2023-04-15T01:43:57;6.50;99.90
52555;DHT22;38455;52.710;6.502;2023-04-15T01:46:22;6.40;99.90
52555;DHT22;38455;52.710;6.502;2023-04-15T01:48:48;6.40;99.90
52555;DHT22;38455;52.710;6.502;2023-04-15T01:51:14;6.30;99.90
52555;DHT22;38455;52.710;6.502;2023-04-15T01:53:39;6.30;99.90
52555;DHT22;38455;52.710;6.502;2023-04-15T01:56:05;6.30;99.90
52555;DHT22;38455;52.710;6.502;2023-04-15T01:58:31;6.30;99.90
52555;DHT22;38455;52.710;6.502;2023-04-15T02:00:57;6.30;99.90
52555;DHT22;38455;52.710;6.502;2023-04-15T02:03:24;6.20;99.90
52555;DHT22;38455;52.710;6.502;2023-04-15T02:05:49;6.10;99.90
52555;DHT22;38455;52.710;6.502;2023-04-15T02:08:15;6.10;99.90
52555;DHT22;38455;52.710;6.502;2023-04-15T02:10:41;6.10;99.90
52555;DHT22;38455;52.710;6.502;2023-04-15T02:13:07;6.10;99.90
52555;DHT22;38455;52.710;6.502;2023-04-15T02:15:33;6.00;99.90
52555;DHT22;38455;52.710;6.502;2023-04-15T02:17:59;6.00;99.90
52555;DHT22;38455;52.710;6.502;2023-04-15T02:20:26;6.00;99.90
52555;DHT22;38455;52.710;6.502;2023-04-15T02:22:52;6.00;99.90
52555;DHT22;38455;52.710;6.502;2023-04-15T02:25:17;5.90;99.90
52555;DHT22;38455;52.710;6.502;2023-04-15T02:27:44;5.90;99.90
52555;DHT22;38455;52.710;6.502;2023-04-15T02:30:10;5.90;99.90
52555;DHT22;38455;52.710;6.502;2023-04-15T02:32:36;5.90;99.90
52555;DHT22;38455;52.710;6.502;2023-04-15T02:35:07;5.80;99.90
52555;DHT22;38455;52.710;6.502;2023-04-15T02:37:35;5.80;99.90
52555;DHT22;38455;52.710;6.502;2023-04-15T02:40:07;5.80;99.90
52555;DHT22;38455;52.710;6.502;2023-04-15T02:42:33;5.70;99.90
52555;DHT22;38455;52.710;6.502;2023-04-15T02:44:59;5.70;99.90
52555;DHT22;38455;52.710;6.502;2023-04-15T02:47:25;5.60;99.90
52555;DHT22;38455;52.710;6.502;2023-04-15T02:49:51;5.70;99.90
52555;DHT22;38455;52.710;6.502;2023-04-15T02:52:16;5.70;99.90
52555;DHT22;38455;52.710;6.502;2023-04-15T02:54:42;5.60;99.90
52555;DHT22;38455;52.710;6.502;2023-04-15T02:57:08;5.60;99.90
52555;DHT22;38455;52.710;6.502;2023-04-15T02:59:35;5.60;99.90
52555;DHT22;38455;52.710;6.502;2023-04-15T03:02:00;5.60;99.90
52555;DHT22;38455;52.710;6.502;2023-04-15T03:04:26;5.60;99.90
52555;DHT22;38455;52.710;6.502;2023-04-15T03:06:54;5.60;99.90
52555;DHT22;38455;52.710;6.502;2023-04-15T03:09:21;5.70;99.90
52555;DHT22;38455;52.710;6.502;2023-04-15T03:11:46;5.70;99.90
52555;DHT22;38455;52.710;6.502;2023-04-15T03:14:12;5.70;99.90
52555;DHT22;38455;52.710;6.502;2023-04-15T03:16:38;5.70;99.90
52555;DHT22;38455;52.710;6.502;2023-04-15T03:19:03;5.80;99.90
52555;DHT22;38455;52.710;6.502;2023-04-15T03:21:29;5.70;99.90
52555;DHT22;38455;52.710;6.502;2023-04-15T03:23:55;5.60;99.90
52555;DHT22;38455;52.710;6.502;2023-04-15T03:26:28;5.70;99.90
52555;DHT22;38455;52.710;6.502;2023-04-15T03:28:55;5.70;99.90
52555;DHT22;38455;52.710;6.502;2023-04-15T03:31:21;5.60;99.90
52555;DHT22;38455;52.710;6.502;2023-04-15T03:33:46;5.50;99.90
52555;DHT22;38455;52.710;6.502;2023-04-15T03:36:12;5.50;99.90
52555;DHT22;38455;52.710;6.502;2023-04-15T03:38:38;5.50;99.90
52555;DHT22;38455;52.710;6.502;2023-04-15T03:41:03;5.50;99.90
52555;DHT22;38455;52.710;6.502;2023-04-15T03:43:29;5.50;99.90
52555;DHT22;38455;52.710;6.502;2023-04-15T03:45:55;5.50;99.90
52555;DHT22;38455;52.710;6.502;2023-04-15T03:48:21;5.50;99.90
52555;DHT22;38455;52.710;6.502;2023-04-15T03:50:47;5.40;99.90
52555;DHT22;38455;52.710;6.502;2023-04-15T03:53:13;5.50;99.90
52555;DHT22;38455;52.710;6.502;2023-04-15T03:55:40;5.40;99.90
52555;DHT22;38455;52.710;6.502;2023-04-15T03:58:05;5.40;99.90
52555;DHT22;38455;52.710;6.502;2023-04-15T04:00:31;5.40;99.90
52555;DHT22;38455;52.710;6.502;2023-04-15T04:02:57;5.40;99.90
52555;DHT22;38455;52.710;6.502;2023-04-15T04:05:22;5.30;99.90
52555;DHT22;38455;52.710;6.502;2023-04-15T04:07:48;5.30;99.90
52555;DHT22;38455;52.710;6.502;2023-04-15T04:10:14;5.30;99.90
52555;DHT22;38455;52.710;6.502;2023-04-15T04:12:39;5.30;99.90
52555;DHT22;38455;52.710;6.502;2023-04-15T04:15:06;5.30;99.90
52555;DHT22;38455;52.710;6.502;2023-04-15T04:17:32;5.30;99.90
52555;DHT22;38455;52.710;6.502;2023-04-15T04:19:58;5.30;99.90
52555;DHT22;38455;52.710;6.502;2023-04-15T04:22:23;5.30;99.90
52555;DHT22;38455;52.710;6.502;2023-04-15T04:24:49;5.30;99.90
52555;DHT22;38455;52.710;6.502;2023-04-15T04:27:15;5.20;99.90
52555;DHT22;38455;52.710;6.502;2023-04-15T04:29:41;5.20;99.90
52555;DHT22;38455;52.710;6.502;2023-04-15T04:32:07;5.30;99.90
52555;DHT22;38455;52.710;6.502;2023-04-15T04:34:33;5.30;99.90
52555;DHT22;38455;52.710;6.502;2023-04-15T04:36:58;5.30;99.90
52555;DHT22;38455;52.710;6.502;2023-04-15T04:39:25;5.30;99.90
52555;DHT22;38455;52.710;6.502;2023-04-15T04:41:50;5.30;99.90
52555;DHT22;38455;52.710;6.502;2023-04-15T04:44:19;5.30;99.90
52555;DHT22;38455;52.710;6.502;2023-04-15T04:46:45;5.30;99.90
52555;DHT22;38455;52.710;6.502;2023-04-15T04:49:10;5.30;99.90
52555;DHT22;38455;52.710;6.502;2023-04-15T04:51:36;5.30;99.90
52555;DHT22;38455;52.710;6.502;2023-04-15T04:54:01;5.30;99.90
52555;DHT22;38455;52.710;6.502;2023-04-15T04:56:28;5.30;99.90
52555;DHT22;38455;52.710;6.502;2023-04-15T04:58:54;5.30;99.90
52555;DHT22;38455;52.710;6.502;2023-04-15T05:01:19;5.30;99.90
52555;DHT22;38455;52.710;6.502;2023-04-15T05:03:45;5.20;99.90
52555;DHT22;38455;52.710;6.502;2023-04-15T05:06:11;5.20;99.90
52555;DHT22;38455;52.710;6.502;2023-04-15T05:08:37;5.20;99.90
52555;DHT22;38455;52.710;6.502;2023-04-15T05:11:03;5.30;99.90
52555;DHT22;38455;52.710;6.502;2023-04-15T05:13:28;5.30;99.90
52555;DHT22;38455;52.710;6.502;2023-04-15T05:15:54;5.30;99.90
52555;DHT22;38455;52.710;6.502;2023-04-15T05:18:21;5.30;99.90
52555;DHT22;38455;52.710;6.502;2023-04-15T05:20:46;5.40;99.90
52555;DHT22;38455;52.710;6.502;2023-04-15T05:23:14;5.50;99.90
52555;DHT22;38455;52.710;6.502;2023-04-15T05:25:40;5.50;99.90
52555;DHT22;38455;52.710;6.502;2023-04-15T05:28:05;5.60;99.90
52555;DHT22;38455;52.710;6.502;2023-04-15T05:30:31;5.70;99.90
52555;DHT22;38455;52.710;6.502;2023-04-15T05:32:57;5.80;99.90
52555;DHT22;38455;52.710;6.502;2023-04-15T05:35:22;5.90;99.90
52555;DHT22;38455;52.710;6.502;2023-04-15T05:37:48;6.20;99.90
52555;DHT22;38455;52.710;6.502;2023-04-15T05:40:13;6.40;99.90
52555;DHT22;38455;52.710;6.502;2023-04-15T05:42:39;6.60;99.90
52555;DHT22;38455;52.710;6.502;2023-04-15T05:45:06;6.60;99.90
52555;DHT22;38455;52.710;6.502;2023-04-15T05:47:34;6.70;99.90
52555;DHT22;38455;52.710;6.502;2023-04-15T05:50:01;6.80;99.90
52555;DHT22;38455;52.710;6.502;2023-04-15T05:52:26;6.90;99.90
52555;DHT22;38455;52.710;6.502;2023-04-15T05:54:52;6.90;99.90
52555;DHT22;38455;52.710;6.502;2023-04-15T05:57:17;7.00;99.90
52555;DHT22;38455;52.710;6.502;2023-04-15T05:59:43;7.10;99.90
52555;DHT22;38455;52.710;6.502;2023-04-15T06:02:09;7.20;99.90
52555;DHT22;38455;52.710;6.502;2023-04-15T06:04:35;7.20;99.90
52555;DHT22;38455;52.710;6.502;2023-04-15T06:07:01;7.30;99.90
52555;DHT22;38455;52.710;6.502;2023-04-15T06:09:27;7.30;99.90
52555;DHT22;38455;52.710;6.502;2023-04-15T06:11:53;7.30;99.90
52555;DHT22;38455;52.710;6.502;2023-04-15T06:14:19;7.40;99.90
52555;DHT22;38455;52.710;6.502;2023-04-15T06:16:44;7.50;99.90
52555;DHT22;38455;52.710;6.502;2023-04-15T06:19:10;7.60;99.90
52555;DHT22;38455;52.710;6.502;2023-04-15T06:21:37;7.70;99.90
52555;DHT22;38455;52.710;6.502;2023-04-15T06:24:02;7.90;99.90
52555;DHT22;38455;52.710;6.502;2023-04-15T06:26:28;7.90;99.90
52555;DHT22;38455;52.710;6.502;2023-04-15T06:28:54;8.10;99.90
52555;DHT22;38455;52.710;6.502;2023-04-15T06:31:20;8.00;99.90
52555;DHT22;38455;52.710;6.502;2023-04-15T06:33:45;8.10;99.90
52555;DHT22;38455;52.710;6.502;2023-04-15T06:36:11;8.20;99.90
52555;DHT22;38455;52.710;6.502;2023-04-15T06:38:36;8.40;99.90
52555;DHT22;38455;52.710;6.502;2023-04-15T06:41:03;8.60;99.90
52555;DHT22;38455;52.710;6.502;2023-04-15T06:43:29;8.80;99.90
52555;DHT22;38455;52.710;6.502;2023-04-15T06:45:55;8.90;99.90
52555;DHT22;38455;52.710;6.502;2023-04-15T06:48:21;9.10;99.90
52555;DHT22;38455;52.710;6.502;2023-04-15T06:50:48;9.20;99.90
52555;DHT22;38455;52.710;6.502;2023-04-15T06:53:13;9.30;99.90
52555;DHT22;38455;52.710;6.502;2023-04-15T06:55:39;9.50;99.90
52555;DHT22;38455;52.710;6.502;2023-04-15T06:58:06;9.60;99.90
52555;DHT22;38455;52.710;6.502;2023-04-15T07:00:32;9.70;99.90
52555;DHT22;38455;52.710;6.502;2023-04-15T07:02:59;10.00;99.90
52555;DHT22;38455;52.710;6.502;2023-04-15T07:05:28;10.30;99.90
52555;DHT22;38455;52.710;6.502;2023-04-15T07:07:54;10.40;99.90
52555;DHT22;38455;52.710;6.502;2023-04-15T07:10:20;10.60;99.90
52555;DHT22;38455;52.710;6.502;2023-04-15T07:12:47;10.40;99.90
52555;DHT22;38455;52.710;6.502;2023-04-15T07:15:13;10.40;99.90
52555;DHT22;38455;52.710;6.502;2023-04-15T07:17:40;10.50;99.90
52555;DHT22;38455;52.710;6.502;2023-04-15T07:20:06;10.40;99.90
52555;DHT22;38455;52.710;6.502;2023-04-15T07:22:32;10.40;99.90
52555;DHT22;38455;52.710;6.502;2023-04-15T07:24:58;10.30;99.90
52555;DHT22;38455;52.710;6.502;2023-04-15T07:27:24;10.30;99.90
52555;DHT22;38455;52.710;6.502;2023-04-15T07:29:50;10.20;99.90
52555;DHT22;38455;52.710;6.502;2023-04-15T07:32:16;10.20;99.90
52555;DHT22;38455;52.710;6.502;2023-04-15T07:34:42;10.30;99.90
52555;DHT22;38455;52.710;6.502;2023-04-15T07:37:08;10.30;99.90
52555;DHT22;38455;52.710;6.502;2023-04-15T07:39:34;10.40;99.90
52555;DHT22;38455;52.710;6.502;2023-04-15T07:41:59;10.40;99.90
52555;DHT22;38455;52.710;6.502;2023-04-15T07:44:26;10.40;99.90
52555;DHT22;38455;52.710;6.502;2023-04-15T07:46:52;10.50;99.90
52555;DHT22;38455;52.710;6.502;2023-04-15T07:49:18;10.50;99.90
52555;DHT22;38455;52.710;6.502;2023-04-15T07:51:45;10.70;99.90
52555;DHT22;38455;52.710;6.502;2023-04-15T07:54:11;10.80;99.90
52555;DHT22;38455;52.710;6.502;2023-04-15T07:56:37;11.00;99.90
52555;DHT22;38455;52.710;6.502;2023-04-15T07:59:02;10.80;99.90
52555;DHT22;38455;52.710;6.502;2023-04-15T08:01:29;11.00;99.90
52555;DHT22;38455;52.710;6.502;2023-04-15T08:03:55;10.90;99.90
52555;DHT22;38455;52.710;6.502;2023-04-15T08:06:22;10.80;99.90
52555;DHT22;38455;52.710;6.502;2023-04-15T08:08:48;11.10;99.90
52555;DHT22;38455;52.710;6.502;2023-04-15T08:11:13;11.10;99.90
52555;DHT22;38455;52.710;6.502;2023-04-15T08:13:39;11.00;99.90
52555;DHT22;38455;52.710;6.502;2023-04-15T08:18:48;11.20;99.90
52555;DHT22;38455;52.710;6.502;2023-04-15T08:21:15;11.30;99.90
52555;DHT22;38455;52.710;6.502;2023-04-15T08:23:41;11.40;99.90
52555;DHT22;38455;52.710;6.502;2023-04-15T08:26:08;11.30;99.90
52555;DHT22;38455;52.710;6.502;2023-04-15T08:28:34;11.20;99.90
52555;DHT22;38455;52.710;6.502;2023-04-15T08:31:00;11.10;99.90
52555;DHT22;38455;52.710;6.502;2023-04-15T08:33:26;11.10;99.90
52555;DHT22;38455;52.710;6.502;2023-04-15T08:35:53;11.20;99.90
52555;DHT22;38455;52.710;6.502;2023-04-15T08:38:18;11.30;99.90
52555;DHT22;38455;52.710;6.502;2023-04-15T08:40:45;11.50;99.90
52555;DHT22;38455;52.710;6.502;2023-04-15T08:43:17;11.50;99.90
52555;DHT22;38455;52.710;6.502;2023-04-15T08:45:45;11.50;99.90
52555;DHT22;38455;52.710;6.502;2023-04-15T08:48:14;11.30;99.90
52555;DHT22;38455;52.710;6.502;2023-04-15T08:50:43;11.00;99.90
52555;DHT22;38455;52.710;6.502;2023-04-15T08:53:10;11.00;99.90
52555;DHT22;38455;52.710;6.502;2023-04-15T08:55:41;10.90;99.90
52555;DHT22;38455;52.710;6.502;2023-04-15T08:58:09;11.00;99.90
52555;DHT22;38455;52.710;6.502;2023-04-15T09:00:35;11.20;99.90
52555;DHT22;38455;52.710;6.502;2023-04-15T09:03:06;11.50;99.90
52555;DHT22;38455;52.710;6.502;2023-04-15T09:05:34;11.70;99.90
52555;DHT22;38455;52.710;6.502;2023-04-15T09:08:00;11.80;99.90
52555;DHT22;38455;52.710;6.502;2023-04-15T09:10:27;11.90;99.90
52555;DHT22;38455;52.710;6.502;2023-04-15T09:12:53;11.80;99.90
52555;DHT22;38455;52.710;6.502;2023-04-15T09:15:19;11.70;99.90
52555;DHT22;38455;52.710;6.502;2023-04-15T09:17:45;11.60;99.90
52555;DHT22;38455;52.710;6.502;2023-04-15T09:20:13;11.20;99.90
52555;DHT22;38455;52.710;6.502;2023-04-15T09:22:43;11.20;99.90
52555;DHT22;38455;52.710;6.502;2023-04-15T09:27:52;11.10;99.90
52555;DHT22;38455;52.710;6.502;2023-04-15T09:30:18;11.00;99.90
52555;DHT22;38455;52.710;6.502;2023-04-15T09:32:57;10.90;99.90
52555;DHT22;38455;52.710;6.502;2023-04-15T09:35:24;10.90;99.90
52555;DHT22;38455;52.710;6.502;2023-04-15T09:37:51;10.80;99.90
52555;DHT22;38455;52.710;6.502;2023-04-15T09:40:38;10.90;99.90
52555;DHT22;38455;52.710;6.502;2023-04-15T09:43:04;10.80;99.90
52555;DHT22;38455;52.710;6.502;2023-04-15T09:45:31;10.90;99.90
52555;DHT22;38455;52.710;6.502;2023-04-15T09:47:58;10.90;99.90
52555;DHT22;38455;52.710;6.502;2023-04-15T09:50:28;10.90;99.90
52555;DHT22;38455;52.710;6.502;2023-04-15T09:52:56;10.80;99.90
52555;DHT22;38455;52.710;6.502;2023-04-15T09:55:22;10.90;99.90
52555;DHT22;38455;52.710;6.502;2023-04-15T09:57:47;11.10;99.90
52555;DHT22;38455;52.710;6.502;2023-04-15T10:00:13;11.10;99.90
52555;DHT22;38455;52.710;6.502;2023-04-15T10:02:40;11.20;99.90
52555;DHT22;38455;52.710;6.502;2023-04-15T10:05:10;11.00;99.90
52555;DHT22;38455;52.710;6.502;2023-04-15T10:07:37;10.90;99.90
52555;DHT22;38455;52.710;6.502;2023-04-15T10:10:06;10.90;99.90
52555;DHT22;38455;52.710;6.502;2023-04-15T10:12:32;11.00;99.90
52555;DHT22;38455;52.710;6.502;2023-04-15T10:15:03;11.20;99.90
52555;DHT22;38455;52.710;6.502;2023-04-15T10:17:33;11.60;99.90
52555;DHT22;38455;52.710;6.502;2023-04-15T10:20:04;11.80;99.90
52555;DHT22;38455;52.710;6.502;2023-04-15T10:22:31;11.90;99.90
52555;DHT22;38455;52.710;6.502;2023-04-15T10:24:58;11.90;99.90
52555;DHT22;38455;52.710;6.502;2023-04-15T10:27:25;11.80;99.90
52555;DHT22;38455;52.710;6.502;2023-04-15T10:29:52;11.60;99.90
52555;DHT22;38455;52.710;6.502;2023-04-15T10:32:19;11.30;99.90
52555;DHT22;38455;52.710;6.502;2023-04-15T10:34:49;11.40;99.90
52555;DHT22;38455;52.710;6.502;2023-04-15T10:37:33;11.30;99.90
52555;DHT22;38455;52.710;6.502;2023-04-15T10:39:59;11.30;99.90
52555;DHT22;38455;52.710;6.502;2023-04-15T10:42:33;11.40;99.90
52555;DHT22;38455;52.710;6.502;2023-04-15T10:44:59;11.40;99.90
52555;DHT22;38455;52.710;6.502;2023-04-15T10:47:25;11.60;99.90
52555;DHT22;38455;52.710;6.502;2023-04-15T10:49:59;11.70;99.90
52555;DHT22;38455;52.710;6.502;2023-04-15T10:52:27;11.80;99.90
52555;DHT22;38455;52.710;6.502;2023-04-15T10:57:34;12.00;99.90
52555;DHT22;38455;52.710;6.502;2023-04-15T11:00:02;12.10;99.90
52555;DHT22;38455;52.710;6.502;2023-04-15T11:02:45;12.10;99.90
52555;DHT22;38455;52.710;6.502;2023-04-15T11:05:13;12.10;99.90
52555;DHT22;38455;52.710;6.502;2023-04-15T11:07:40;12.10;99.90
52555;DHT22;38455;52.710;6.502;2023-04-15T11:12:39;12.00;99.90
52555;DHT22;38455;52.710;6.502;2023-04-15T11:15:24;12.00;99.90
52555;DHT22;38455;52.710;6.502;2023-04-15T11:17:51;11.90;99.90
52555;DHT22;38455;52.710;6.502;2023-04-15T11:20:17;11.90;99.90
52555;DHT22;38455;52.710;6.502;2023-04-15T11:22:51;11.80;99.90
52555;DHT22;38455;52.710;6.502;2023-04-15T11:25:31;11.70;99.90
52555;DHT22;38455;52.710;6.502;2023-04-15T11:27:58;11.60;99.90
52555;DHT22;38455;52.710;6.502;2023-04-15T11:30:29;11.70;99.90
52555;DHT22;38455;52.710;6.502;2023-04-15T11:32:58;11.60;99.90
52555;DHT22;38455;52.710;6.502;2023-04-15T11:35:24;11.70;99.90
52555;DHT22;38455;52.710;6.502;2023-04-15T11:37:50;11.70;99.90
52555;DHT22;38455;52.710;6.502;2023-04-15T11:40:21;11.60;99.90
52555;DHT22;38455;52.710;6.502;2023-04-15T11:42:46;11.60;99.90
52555;DHT22;38455;52.710;6.502;2023-04-15T11:45:27;11.70;99.90
52555;DHT22;38455;52.710;6.502;2023-04-15T11:47:53;11.80;99.90
52555;DHT22;38455;52.710;6.502;2023-04-15T11:50:20;11.80;99.90
52555;DHT22;38455;52.710;6.502;2023-04-15T11:52:53;11.70;99.90
52555;DHT22;38455;52.710;6.502;2023-04-15T11:55:19;11.90;99.90
52555;DHT22;38455;52.710;6.502;2023-04-15T11:57:45;11.90;99.90
52555;DHT22;38455;52.710;6.502;2023-04-15T12:00:11;12.00;99.90
52555;DHT22;38455;52.710;6.502;2023-04-15T12:02:38;11.90;99.90
52555;DHT22;38455;52.710;6.502;2023-04-15T12:05:05;11.70;99.90
52555;DHT22;38455;52.710;6.502;2023-04-15T12:07:31;11.70;99.90
52555;DHT22;38455;52.710;6.502;2023-04-15T12:09:57;11.60;99.90
52555;DHT22;38455;52.710;6.502;2023-04-15T12:12:27;11.50;99.90
52555;DHT22;38455;52.710;6.502;2023-04-15T12:14:55;11.40;99.90
52555;DHT22;38455;52.710;6.502;2023-04-15T12:17:22;11.40;99.90
52555;DHT22;38455;52.710;6.502;2023-04-15T12:19:48;11.40;99.90
52555;DHT22;38455;52.710;6.502;2023-04-15T12:22:20;11.40;99.90
52555;DHT22;38455;52.710;6.502;2023-04-15T12:24:46;11.40;99.90
52555;DHT22;38455;52.710;6.502;2023-04-15T12:27:14;11.40;99.90
52555;DHT22;38455;52.710;6.502;2023-04-15T12:29:41;11.40;99.90
52555;DHT22;38455;52.710;6.502;2023-04-15T12:32:12;11.30;99.90
52555;DHT22;38455;52.710;6.502;2023-04-15T12:34:50;11.30;99.90
52555;DHT22;38455;52.710;6.502;2023-04-15T12:37:16;11.30;99.90
52555;DHT22;38455;52.710;6.502;2023-04-15T12:39:43;11.20;99.90
52555;DHT22;38455;52.710;6.502;2023-04-15T12:42:10;11.20;99.90
52555;DHT22;38455;52.710;6.502;2023-04-15T12:44:36;11.20;99.90
52555;DHT22;38455;52.710;6.502;2023-04-15T12:47:02;11.20;99.90
52555;DHT22;38455;52.710;6.502;2023-04-15T12:49:31;11.40;99.90
52555;DHT22;38455;52.710;6.502;2023-04-15T12:51:58;11.40;99.90
52555;DHT22;38455;52.710;6.502;2023-04-15T12:54:28;11.40;99.90
52555;DHT22;38455;52.710;6.502;2023-04-15T12:56:54;11.40;99.90
52555;DHT22;38455;52.710;6.502;2023-04-15T12:59:21;11.50;99.90
52555;DHT22;38455;52.710;6.502;2023-04-15T13:01:48;11.40;99.90
52555;DHT22;38455;52.710;6.502;2023-04-15T13:04:14;11.30;99.90
52555;DHT22;38455;52.710;6.502;2023-04-15T13:06:41;11.30;99.90
52555;DHT22;38455;52.710;6.502;2023-04-15T13:09:06;11.30;99.90
52555;DHT22;38455;52.710;6.502;2023-04-15T13:11:33;11.30;99.90
52555;DHT22;38455;52.710;6.502;2023-04-15T13:14:03;11.30;99.90
52555;DHT22;38455;52.710;6.502;2023-04-15T13:16:29;11.40;99.90
52555;DHT22;38455;52.710;6.502;2023-04-15T13:18:56;11.30;99.90
52555;DHT22;38455;52.710;6.502;2023-04-15T13:21:22;11.50;99.90
52555;DHT22;38455;52.710;6.502;2023-04-15T13:23:48;11.60;99.90
52555;DHT22;38455;52.710;6.502;2023-04-15T13:26:15;11.70;99.90
52555;DHT22;38455;52.710;6.502;2023-04-15T13:28:41;11.80;99.90
52555;DHT22;38455;52.710;6.502;2023-04-15T13:31:06;11.60;99.90
52555;DHT22;38455;52.710;6.502;2023-04-15T13:33:32;11.80;99.90
52555;DHT22;38455;52.710;6.502;2023-04-15T13:35:58;11.80;99.90
52555;DHT22;38455;52.710;6.502;2023-04-15T13:38:24;11.80;99.90
52555;DHT22;38455;52.710;6.502;2023-04-15T13:40:50;11.80;99.90
52555;DHT22;38455;52.710;6.502;2023-04-15T13:43:16;11.70;99.90
52555;DHT22;38455;52.710;6.502;2023-04-15T13:45:42;11.60;99.90
52555;DHT22;38455;52.710;6.502;2023-04-15T13:48:08;11.70;99.90
52555;DHT22;38455;52.710;6.502;2023-04-15T13:50:34;11.60;99.90
52555;DHT22;38455;52.710;6.502;2023-04-15T13:53:00;11.60;99.90
52555;DHT22;38455;52.710;6.502;2023-04-15T13:55:25;11.60;99.90
52555;DHT22;38455;52.710;6.502;2023-04-15T13:57:51;11.60;99.90
52555;DHT22;38455;52.710;6.502;2023-04-15T14:00:17;11.60;99.90
52555;DHT22;38455;52.710;6.502;2023-04-15T14:02:42;11.60;99.90
52555;DHT22;38455;52.710;6.502;2023-04-15T14:05:09;11.60;99.90
52555;DHT22;38455;52.710;6.502;2023-04-15T14:07:34;11.50;99.90
52555;DHT22;38455;52.710;6.502;2023-04-15T14:10:00;11.40;99.90
52555;DHT22;38455;52.710;6.502;2023-04-15T14:12:26;11.20;99.90
52555;DHT22;38455;52.710;6.502;2023-04-15T14:14:52;11.20;99.90
52555;DHT22;38455;52.710;6.502;2023-04-15T14:17:17;11.10;99.90
52555;DHT22;38455;52.710;6.502;2023-04-15T14:19:43;11.10;99.90
52555;DHT22;38455;52.710;6.502;2023-04-15T14:22:09;11.00;99.90
52555;DHT22;38455;52.710;6.502;2023-04-15T14:24:35;11.00;99.90
52555;DHT22;38455;52.710;6.502;2023-04-15T14:27:00;11.10;99.90
52555;DHT22;38455;52.710;6.502;2023-04-15T14:29:27;11.10;99.90
52555;DHT22;38455;52.710;6.502;2023-04-15T14:31:52;11.00;99.90
52555;DHT22;38455;52.710;6.502;2023-04-15T14:34:18;11.00;99.90
52555;DHT22;38455;52.710;6.502;2023-04-15T14:36:46;10.80;99.90
52555;DHT22;38455;52.710;6.502;2023-04-15T14:39:13;10.80;99.90
52555;DHT22;38455;52.710;6.502;2023-04-15T14:41:38;10.80;99.90
52555;DHT22;38455;52.710;6.502;2023-04-15T14:44:04;10.80;99.90
52555;DHT22;38455;52.710;6.502;2023-04-15T14:46:30;10.80;99.90
52555;DHT22;38455;52.710;6.502;2023-04-15T14:48:56;10.70;99.90
52555;DHT22;38455;52.710;6.502;2023-04-15T14:51:22;10.60;99.90
52555;DHT22;38455;52.710;6.502;2023-04-15T14:53:47;10.50;99.90
52555;DHT22;38455;52.710;6.502;2023-04-15T14:56:13;10.50;99.90
52555;DHT22;38455;52.710;6.502;2023-04-15T14:58:38;10.40;99.90
52555;DHT22;38455;52.710;6.502;2023-04-15T15:01:04;10.50;99.90
52555;DHT22;38455;52.710;6.502;2023-04-15T15:03:30;10.40;99.90
52555;DHT22;38455;52.710;6.502;2023-04-15T15:05:56;10.30;99.90
52555;DHT22;38455;52.710;6.502;2023-04-15T15:08:24;10.30;99.90
52555;DHT22;38455;52.710;6.502;2023-04-15T15:10:50;10.30;99.90
52555;DHT22;38455;52.710;6.502;2023-04-15T15:13:16;10.20;99.90
52555;DHT22;38455;52.710;6.502;2023-04-15T15:15:42;10.20;99.90
52555;DHT22;38455;52.710;6.502;2023-04-15T15:18:09;10.10;99.90
52555;DHT22;38455;52.710;6.502;2023-04-15T15:20:35;10.10;99.90
52555;DHT22;38455;52.710;6.502;2023-04-15T15:23:00;10.10;99.90
52555;DHT22;38455;52.710;6.502;2023-04-15T15:25:27;10.10;99.90
52555;DHT22;38455;52.710;6.502;2023-04-15T15:27:52;10.00;99.90
52555;DHT22;38455;52.710;6.502;2023-04-15T15:30:18;10.00;99.90
52555;DHT22;38455;52.710;6.502;2023-04-15T15:32:44;9.90;99.90
52555;DHT22;38455;52.710;6.502;2023-04-15T15:35:09;9.90;99.90
52555;DHT22;38455;52.710;6.502;2023-04-15T15:37:36;9.90;99.90
52555;DHT22;38455;52.710;6.502;2023-04-15T15:40:05;9.80;99.90
52555;DHT22;38455;52.710;6.502;2023-04-15T15:42:31;9.80;99.90
52555;DHT22;38455;52.710;6.502;2023-04-15T15:44:57;9.80;99.90